createdAt,value
2022-10-20T00:02:20.402Z,7.80
2022-10-20T00:04:47.168Z,7.70
2022-10-20T00:07:14.014Z,7.70
2022-10-20T00:09:40.892Z,7.70
2022-10-20T00:12:07.653Z,7.70
2022-10-20T00:14:34.433Z,7.70
2022-10-20T00:17:01.462Z,7.70
2022-10-20T00:19:28.932Z,7.70
2022-10-20T00:21:56.348Z,7.70
2022-10-20T00:24:23.090Z,7.70
2022-10-20T00:26:49.872Z,7.60
2022-10-20T00:31:48.412Z,7.60
2022-10-20T00:34:15.132Z,7.60
2022-10-20T00:36:41.874Z,7.60
2022-10-20T00:39:08.578Z,7.50
2022-10-20T00:41:35.477Z,7.50
2022-10-20T00:44:23.645Z,7.50
2022-10-20T00:46:50.494Z,7.50
2022-10-20T00:49:23.420Z,7.50
2022-10-20T00:51:52.595Z,7.50
2022-10-20T00:54:25.495Z,7.50
2022-10-20T00:56:53.605Z,7.50
2022-10-20T00:59:25.680Z,7.50
2022-10-20T01:01:53.462Z,7.40
2022-10-20T01:04:20.459Z,7.40
2022-10-20T01:06:47.296Z,7.40
2022-10-20T01:09:14.212Z,7.40
2022-10-20T01:11:46.842Z,7.30
2022-10-20T01:14:43.247Z,7.40
2022-10-20T01:17:31.968Z,7.40
2022-10-20T01:20:24.769Z,7.30
2022-10-20T01:23:17.282Z,7.30
2022-10-20T01:25:53.037Z,7.30
2022-10-20T01:28:43.186Z,7.30
2022-10-20T01:31:37.152Z,7.30
2022-10-20T01:34:24.901Z,7.30
2022-10-20T01:37:01.819Z,7.30
2022-10-20T01:39:41.041Z,7.20
2022-10-20T01:42:16.318Z,7.20
2022-10-20T01:44:44.288Z,7.20
2022-10-20T01:47:13.751Z,7.20
2022-10-20T01:49:43.765Z,7.20
2022-10-20T01:52:11.947Z,7.20
2022-10-20T01:54:38.661Z,7.10
2022-10-20T01:57:43.533Z,7.10
2022-10-20T02:00:11.873Z,7.10
2022-10-20T02:02:50.352Z,7.10
2022-10-20T02:05:43.917Z,7.10
2022-10-20T02:08:22.965Z,7.00
2022-10-20T02:10:58.381Z,7.00
2022-10-20T02:13:27.310Z,7.00
2022-10-20T02:16:00.239Z,6.90
2022-10-20T02:18:39.666Z,6.90
2022-10-20T02:21:08.020Z,6.90
2022-10-20T02:23:38.069Z,6.80
2022-10-20T02:26:11.685Z,6.80
2022-10-20T02:28:40.977Z,6.80
2022-10-20T02:31:08.384Z,6.80
2022-10-20T02:33:35.882Z,6.80
2022-10-20T02:36:06.243Z,6.70
2022-10-20T02:38:33.012Z,6.70
2022-10-20T02:40:59.711Z,6.70
2022-10-20T02:43:26.423Z,6.60
2022-10-20T02:45:53.117Z,6.60
2022-10-20T02:48:19.838Z,6.60
2022-10-20T02:50:46.575Z,6.60
2022-10-20T02:53:13.341Z,6.60
2022-10-20T02:55:40.828Z,6.50
2022-10-20T02:58:07.539Z,6.50
2022-10-20T03:00:34.269Z,6.50
2022-10-20T03:03:01.006Z,6.50
2022-10-20T03:05:27.736Z,6.50
2022-10-20T03:07:54.425Z,6.50
2022-10-20T03:10:21.283Z,6.50
2022-10-20T03:12:48.000Z,6.40
2022-10-20T03:15:14.814Z,6.40
2022-10-20T03:17:41.519Z,6.40
2022-10-20T03:20:08.825Z,6.40
2022-10-20T03:22:35.583Z,6.30
2022-10-20T03:25:02.284Z,6.30
2022-10-20T03:27:29.017Z,6.30
2022-10-20T03:29:55.791Z,6.30
2022-10-20T03:32:22.569Z,6.20
2022-10-20T03:34:49.309Z,6.20
2022-10-20T03:37:16.075Z,6.20
2022-10-20T03:39:42.782Z,6.10
2022-10-20T03:42:09.528Z,6.10
2022-10-20T03:44:36.256Z,6.10
2022-10-20T03:47:03.150Z,6.10
2022-10-20T03:49:31.519Z,6.00
2022-10-20T03:51:58.809Z,6.10
2022-10-20T03:54:25.524Z,6.00
2022-10-20T03:56:52.250Z,6.00
2022-10-20T03:59:18.966Z,6.00
2022-10-20T04:01:46.489Z,5.90
2022-10-20T04:04:14.004Z,5.90
2022-10-20T04:06:40.708Z,5.90
2022-10-20T04:09:07.484Z,5.90
2022-10-20T04:11:34.241Z,5.80
2022-10-20T04:14:00.952Z,5.80
2022-10-20T04:16:27.671Z,5.80
2022-10-20T04:18:55.644Z,5.70
2022-10-20T04:21:22.840Z,5.70
2022-10-20T04:23:49.559Z,5.70
2022-10-20T04:26:16.877Z,5.70
2022-10-20T04:28:43.775Z,5.70
2022-10-20T04:31:10.604Z,5.70
2022-10-20T04:33:37.323Z,5.60
2022-10-20T04:36:06.866Z,5.60
2022-10-20T04:38:35.129Z,5.60
2022-10-20T04:41:04.501Z,5.60
2022-10-20T04:43:32.680Z,5.60
2022-10-20T04:46:03.899Z,5.60
2022-10-20T04:48:33.990Z,5.60
2022-10-20T04:51:09.345Z,5.60
2022-10-20T04:53:36.986Z,5.60
2022-10-20T04:56:05.468Z,5.60
2022-10-20T04:58:32.529Z,5.50
2022-10-20T05:01:10.051Z,5.50
2022-10-20T05:03:37.149Z,5.50
2022-10-20T05:06:25.150Z,5.60
2022-10-20T05:08:54.194Z,5.50
2022-10-20T05:11:22.916Z,5.50
2022-10-20T05:13:49.755Z,5.50
2022-10-20T05:16:17.567Z,5.40
2022-10-20T05:18:45.078Z,5.40
2022-10-20T05:21:17.941Z,5.40
2022-10-20T05:23:45.745Z,5.40
2022-10-20T05:26:17.750Z,5.40
2022-10-20T05:28:49.537Z,5.40
2022-10-20T05:31:18.774Z,5.40
2022-10-20T05:33:48.391Z,5.40
2022-10-20T05:36:19.459Z,5.30
2022-10-20T05:39:04.331Z,5.30
2022-10-20T05:41:36.293Z,5.30
2022-10-20T05:44:08.671Z,5.30
2022-10-20T05:46:42.937Z,5.30
2022-10-20T05:49:15.511Z,5.30
2022-10-20T05:51:42.554Z,5.30
2022-10-20T05:54:11.783Z,5.30
2022-10-20T05:56:38.871Z,5.30
2022-10-20T05:59:05.574Z,5.30
2022-10-20T06:02:00.041Z,5.30
2022-10-20T06:04:28.097Z,5.20
2022-10-20T06:06:55.868Z,5.20
2022-10-20T06:09:24.444Z,5.20
2022-10-20T06:11:51.920Z,5.20
2022-10-20T06:14:19.216Z,5.20
2022-10-20T06:16:46.227Z,5.20
2022-10-20T06:19:13.587Z,5.20
2022-10-20T06:21:40.306Z,5.20
2022-10-20T06:24:07.427Z,5.20
2022-10-20T06:26:36.635Z,5.20
2022-10-20T06:29:08.570Z,5.20
2022-10-20T06:31:48.995Z,5.20
2022-10-20T06:34:25.692Z,5.20
2022-10-20T06:36:52.797Z,5.10
2022-10-20T06:39:21.692Z,5.20
2022-10-20T06:41:53.687Z,5.10
2022-10-20T06:44:22.634Z,5.20
2022-10-20T06:46:52.719Z,5.20
2022-10-20T06:49:20.344Z,5.20
2022-10-20T06:51:47.179Z,5.20
2022-10-20T06:54:13.939Z,5.20
2022-10-20T06:56:40.895Z,5.30
2022-10-20T06:59:08.054Z,5.30
2022-10-20T07:01:36.585Z,5.30
2022-10-20T07:04:07.305Z,5.30
2022-10-20T07:06:39.425Z,5.40
2022-10-20T07:09:09.079Z,5.40
2022-10-20T07:11:36.101Z,5.40
2022-10-20T07:14:03.284Z,5.40
2022-10-20T07:16:32.846Z,5.50
2022-10-20T07:19:01.079Z,5.50
2022-10-20T07:21:32.432Z,5.50
2022-10-20T07:24:05.105Z,5.60
2022-10-20T07:26:34.404Z,5.60
2022-10-20T07:29:01.745Z,5.70
2022-10-20T07:31:37.068Z,5.70
2022-10-20T07:34:25.581Z,5.80
2022-10-20T07:36:52.534Z,5.80
2022-10-20T07:39:19.263Z,5.80
2022-10-20T07:41:47.645Z,5.90
2022-10-20T07:44:15.305Z,6.00
2022-10-20T07:46:42.102Z,6.00
2022-10-20T07:49:39.234Z,6.00
2022-10-20T07:51:55.635Z,6.10
2022-10-20T07:54:22.549Z,6.10
2022-10-20T07:56:49.617Z,6.20
2022-10-20T07:59:16.491Z,6.20
2022-10-20T08:01:43.839Z,6.30
2022-10-20T08:04:11.271Z,6.30
2022-10-20T08:06:39.265Z,6.40
2022-10-20T08:09:07.257Z,6.40
2022-10-20T08:11:34.538Z,6.50
2022-10-20T08:14:01.571Z,6.50
2022-10-20T08:16:31.597Z,6.60
2022-10-20T08:19:00.588Z,6.60
2022-10-20T08:21:27.361Z,6.60
2022-10-20T08:23:54.255Z,6.70
2022-10-20T08:26:23.397Z,6.70
2022-10-20T08:28:51.783Z,6.70
2022-10-20T08:31:18.871Z,6.80
2022-10-20T08:33:48.867Z,6.80
2022-10-20T08:36:19.066Z,6.90
2022-10-20T08:38:45.795Z,6.90
2022-10-20T08:41:19.812Z,7.00
2022-10-20T08:43:48.924Z,7.00
2022-10-20T08:48:51.145Z,7.10
2022-10-20T08:51:27.931Z,7.10
2022-10-20T08:53:58.431Z,7.20
2022-10-20T08:56:27.803Z,7.20
2022-10-20T08:58:54.810Z,7.30
2022-10-20T09:01:24.577Z,7.30
2022-10-20T09:04:11.661Z,7.30
2022-10-20T09:06:41.882Z,7.40
2022-10-20T09:09:13.900Z,7.40
2022-10-20T09:11:41.878Z,7.50
2022-10-20T09:14:10.939Z,7.50
2022-10-20T09:16:55.366Z,7.60
2022-10-20T09:19:27.201Z,7.60
2022-10-20T09:21:57.948Z,7.70
2022-10-20T09:24:29.898Z,7.70
2022-10-20T09:26:59.890Z,7.80
2022-10-20T09:29:40.313Z,7.90
2022-10-20T09:32:46.149Z,7.90
2022-10-20T09:35:23.042Z,8.00
2022-10-20T09:38:23.778Z,8.10
2022-10-20T09:41:27.927Z,8.10
2022-10-20T09:43:58.879Z,8.20
2022-10-20T09:46:31.422Z,8.30
2022-10-20T09:48:58.699Z,8.30
2022-10-20T09:51:27.807Z,8.40
2022-10-20T09:54:02.322Z,8.40
2022-10-20T09:56:33.430Z,8.50
2022-10-20T09:59:01.207Z,8.60
2022-10-20T10:01:28.331Z,8.60
2022-10-20T10:03:59.878Z,8.70
2022-10-20T10:06:26.846Z,8.70
2022-10-20T10:08:54.336Z,8.70
2022-10-20T10:11:23.441Z,8.80
2022-10-20T10:13:52.288Z,8.90
2022-10-20T10:16:21.987Z,8.90
2022-10-20T10:18:59.687Z,9.00
2022-10-20T10:21:26.707Z,9.00
2022-10-20T10:24:01.940Z,9.10
2022-10-20T10:26:37.555Z,9.10
2022-10-20T10:29:04.969Z,9.20
2022-10-20T10:31:33.579Z,9.30
2022-10-20T10:34:20.581Z,9.30
2022-10-20T10:36:47.308Z,9.40
2022-10-20T10:39:15.786Z,9.50
2022-10-20T10:42:14.303Z,9.50
2022-10-20T10:44:50.589Z,9.60
2022-10-20T10:47:26.205Z,9.70
2022-10-20T10:50:14.945Z,9.80
2022-10-20T10:53:02.705Z,9.90
2022-10-20T10:55:48.345Z,9.90
2022-10-20T10:58:18.384Z,10.00
2022-10-20T11:01:19.720Z,10.10
2022-10-20T11:04:03.951Z,10.10
2022-10-20T11:06:30.638Z,10.20
2022-10-20T11:09:03.067Z,10.20
2022-10-20T11:12:08.235Z,10.30
2022-10-20T11:14:37.469Z,10.30
2022-10-20T11:17:18.818Z,10.40
2022-10-20T11:20:08.961Z,10.50
2022-10-20T11:22:50.362Z,10.50
2022-10-20T11:25:20.030Z,10.70
2022-10-20T11:27:46.856Z,10.70
2022-10-20T11:30:16.601Z,10.80
2022-10-20T11:32:49.507Z,10.90
2022-10-20T11:35:40.324Z,11.00
2022-10-20T11:38:20.744Z,11.20
2022-10-20T11:40:58.763Z,11.20
2022-10-20T11:43:50.589Z,11.40
2022-10-20T11:46:48.737Z,11.40
2022-10-20T11:49:15.695Z,11.50
2022-10-20T11:51:50.978Z,11.60
2022-10-20T11:54:48.616Z,11.70
2022-10-20T11:57:37.213Z,11.80
2022-10-20T12:00:32.621Z,11.80
2022-10-20T12:03:02.471Z,11.90
2022-10-20T12:05:48.004Z,11.90
2022-10-20T12:08:30.285Z,11.90
2022-10-20T12:11:03.791Z,12.00
2022-10-20T12:13:51.883Z,12.00
2022-10-20T12:16:52.510Z,12.10
2022-10-20T12:19:29.975Z,12.10
2022-10-20T12:22:00.758Z,12.20
2022-10-20T12:24:41.044Z,12.20
2022-10-20T12:27:11.032Z,12.30
2022-10-20T12:29:37.719Z,12.30
2022-10-20T12:32:25.640Z,12.30
2022-10-20T12:34:55.390Z,12.20
2022-10-20T12:37:24.868Z,12.20
2022-10-20T12:39:54.394Z,12.20
2022-10-20T12:42:23.274Z,12.10
2022-10-20T12:44:50.738Z,12.10
2022-10-20T12:47:32.151Z,12.10
2022-10-20T12:50:19.018Z,12.10
2022-10-20T12:52:46.917Z,12.10
2022-10-20T12:55:25.661Z,12.10
2022-10-20T12:58:10.618Z,12.10
2022-10-20T13:00:37.333Z,12.10
2022-10-20T13:03:35.902Z,12.20
2022-10-20T13:06:22.581Z,12.10
2022-10-20T13:09:04.859Z,12.20
2022-10-20T13:11:44.558Z,12.20
2022-10-20T13:14:27.443Z,12.20
2022-10-20T13:17:06.213Z,12.20
2022-10-20T13:19:58.904Z,12.20
2022-10-20T13:22:40.344Z,12.20
2022-10-20T13:25:16.246Z,12.10
2022-10-20T13:27:42.972Z,12.10
2022-10-20T13:30:10.590Z,12.10
2022-10-20T13:33:10.870Z,12.00
2022-10-20T13:35:47.383Z,12.00
2022-10-20T13:38:23.592Z,11.90
2022-10-20T13:41:13.832Z,11.90
2022-10-20T13:43:56.634Z,11.90
2022-10-20T13:46:46.647Z,11.90
2022-10-20T13:49:16.125Z,11.90
2022-10-20T13:51:51.810Z,12.00
2022-10-20T13:54:34.571Z,12.00
2022-10-20T13:57:02.351Z,12.00
2022-10-20T13:59:30.650Z,12.00
2022-10-20T14:02:18.228Z,12.00
2022-10-20T14:04:44.968Z,12.00
2022-10-20T14:07:13.492Z,12.00
2022-10-20T14:09:45.259Z,12.00
2022-10-20T14:12:26.604Z,12.00
2022-10-20T14:15:01.504Z,12.00
2022-10-20T14:17:29.133Z,12.00
2022-10-20T14:20:18.776Z,12.00
2022-10-20T14:22:46.008Z,12.00
2022-10-20T14:25:12.957Z,12.00
2022-10-20T14:27:40.287Z,11.90
2022-10-20T14:30:08.467Z,12.00
2022-10-20T14:32:39.822Z,11.90
2022-10-20T14:35:18.804Z,11.90
2022-10-20T14:37:52.660Z,11.90
2022-10-20T14:40:23.742Z,11.90
2022-10-20T14:42:51.185Z,11.90
2022-10-20T14:45:24.234Z,11.80
2022-10-20T14:47:52.333Z,11.80
2022-10-20T14:50:34.051Z,11.80
2022-10-20T14:53:32.746Z,11.80
2022-10-20T14:56:02.556Z,11.80
2022-10-20T14:58:39.674Z,11.80
2022-10-20T15:01:26.339Z,11.70
2022-10-20T15:04:16.088Z,11.70
2022-10-20T15:06:46.142Z,11.70
2022-10-20T15:09:29.374Z,11.60
2022-10-20T15:11:56.284Z,11.60
2022-10-20T15:14:23.328Z,11.60
2022-10-20T15:16:50.367Z,11.60
2022-10-20T15:19:23.331Z,11.60
2022-10-20T15:21:57.660Z,11.60
2022-10-20T15:24:24.351Z,11.50
2022-10-20T15:26:51.132Z,11.50
2022-10-20T15:29:18.285Z,11.40
2022-10-20T15:31:45.046Z,11.50
2022-10-20T15:34:12.518Z,11.50
2022-10-20T15:36:42.075Z,11.50
2022-10-20T15:39:09.438Z,11.50
2022-10-20T15:41:36.736Z,11.40
2022-10-20T15:44:17.084Z,11.50
2022-10-20T15:46:47.109Z,11.40
2022-10-20T15:49:14.388Z,11.40
2022-10-20T15:51:44.153Z,11.40
2022-10-20T15:54:15.777Z,11.40
2022-10-20T15:56:43.071Z,11.40
2022-10-20T15:59:09.827Z,11.40
2022-10-20T16:01:37.031Z,11.40
2022-10-20T16:04:23.559Z,11.40
2022-10-20T16:06:57.680Z,11.30
2022-10-20T16:09:26.108Z,11.40
2022-10-20T16:11:52.930Z,11.30
2022-10-20T16:14:19.628Z,11.30
2022-10-20T16:16:46.345Z,11.30
2022-10-20T16:19:13.657Z,11.40
2022-10-20T16:21:41.229Z,11.30
2022-10-20T16:24:07.981Z,11.30
2022-10-20T16:26:34.737Z,11.40
2022-10-20T16:29:01.459Z,11.40
2022-10-20T16:31:29.301Z,11.30
2022-10-20T16:33:59.007Z,11.30
2022-10-20T16:36:25.806Z,11.30
2022-10-20T16:39:00.690Z,11.30
2022-10-20T16:41:27.491Z,11.30
2022-10-20T16:43:57.519Z,11.30
2022-10-20T16:46:25.923Z,11.30
2022-10-20T16:48:52.692Z,11.30
2022-10-20T16:51:19.516Z,11.30
2022-10-20T16:53:46.287Z,11.30
2022-10-20T16:56:16.663Z,11.30
2022-10-20T16:58:46.828Z,11.20
2022-10-20T17:01:15.921Z,11.20
2022-10-20T17:03:45.312Z,11.20
2022-10-20T17:06:13.244Z,11.20
2022-10-20T17:08:40.301Z,11.20
2022-10-20T17:11:12.702Z,11.10
2022-10-20T17:13:40.285Z,11.20
2022-10-20T17:16:10.036Z,11.10
2022-10-20T17:18:36.983Z,11.20
2022-10-20T17:21:04.134Z,11.20
2022-10-20T17:23:38.687Z,11.20
2022-10-20T17:26:12.857Z,11.20
2022-10-20T17:28:39.603Z,11.20
2022-10-20T17:31:08.461Z,11.20
2022-10-20T17:33:36.645Z,11.30
2022-10-20T17:36:04.212Z,11.30
2022-10-20T17:38:31.469Z,11.30
2022-10-20T17:41:05.244Z,11.30
2022-10-20T17:43:32.605Z,11.40
2022-10-20T17:46:08.726Z,11.30
2022-10-20T17:48:36.849Z,11.30
2022-10-20T17:51:14.242Z,11.30
2022-10-20T17:53:45.296Z,11.30
2022-10-20T17:56:16.585Z,11.30
2022-10-20T17:58:44.721Z,11.30
2022-10-20T18:01:26.374Z,11.20
2022-10-20T18:03:59.307Z,11.20
2022-10-20T18:06:32.709Z,11.20
2022-10-20T18:09:04.511Z,11.20
2022-10-20T18:11:33.150Z,11.20
2022-10-20T18:14:00.384Z,11.20
2022-10-20T18:16:29.528Z,11.30
2022-10-20T18:21:31.369Z,11.30
2022-10-20T18:24:02.234Z,11.30
2022-10-20T18:26:31.086Z,11.30
2022-10-20T18:28:59.419Z,11.30
2022-10-20T18:31:28.842Z,11.30
2022-10-20T18:34:02.541Z,11.30
2022-10-20T18:36:33.178Z,11.30
2022-10-20T18:39:00.478Z,11.30
2022-10-20T18:41:35.231Z,11.30
2022-10-20T18:44:02.176Z,11.30
2022-10-20T18:46:31.178Z,11.30
2022-10-20T18:49:00.110Z,11.30
2022-10-20T18:51:27.696Z,11.30
2022-10-20T18:53:56.909Z,11.30
2022-10-20T18:56:26.303Z,11.30
2022-10-20T18:58:55.546Z,11.30
2022-10-20T19:01:25.095Z,11.30
2022-10-20T19:03:53.397Z,11.30
2022-10-20T19:06:34.868Z,11.30
2022-10-20T19:09:04.441Z,11.30
2022-10-20T19:11:32.974Z,11.30
2022-10-20T19:14:00.638Z,11.30
2022-10-20T19:16:30.085Z,11.30
2022-10-20T19:18:58.922Z,11.30
2022-10-20T19:21:26.916Z,11.30
2022-10-20T19:23:57.794Z,11.30
2022-10-20T19:26:27.574Z,11.30
2022-10-20T19:28:58.808Z,11.30
2022-10-20T19:31:31.362Z,11.20
2022-10-20T19:34:01.000Z,11.30
2022-10-20T19:36:29.005Z,11.30
2022-10-20T19:38:56.351Z,11.20
2022-10-20T19:41:23.662Z,11.20
2022-10-20T19:43:50.822Z,11.20
2022-10-20T19:46:19.730Z,11.20
2022-10-20T19:48:47.108Z,11.20
2022-10-20T19:51:16.248Z,11.20
2022-10-20T19:53:43.470Z,11.20
2022-10-20T19:56:10.773Z,11.20
2022-10-20T19:58:41.381Z,11.20
2022-10-20T20:01:11.008Z,11.20
2022-10-20T20:03:37.810Z,11.20
2022-10-20T20:06:08.475Z,11.20
2022-10-20T20:08:36.490Z,11.20
2022-10-20T20:11:05.176Z,11.20
2022-10-20T20:13:32.005Z,11.20
2022-10-20T20:16:07.812Z,11.20
2022-10-20T20:18:36.000Z,11.20
2022-10-20T20:21:04.681Z,11.20
2022-10-20T20:23:47.363Z,11.20
2022-10-20T20:26:21.422Z,11.20
2022-10-20T20:28:48.445Z,11.40
2022-10-20T20:31:15.175Z,11.20
2022-10-20T20:33:41.910Z,11.30
2022-10-20T20:36:09.245Z,11.20
2022-10-20T20:38:38.360Z,11.20
2022-10-20T20:41:08.178Z,11.20
2022-10-20T20:43:35.398Z,11.20
2022-10-20T20:46:16.160Z,11.20
2022-10-20T20:48:43.652Z,11.20
2022-10-20T20:51:11.467Z,11.20
2022-10-20T20:53:39.332Z,11.20
2022-10-20T20:56:08.555Z,11.20
2022-10-20T20:58:35.899Z,11.20
2022-10-20T21:01:14.148Z,11.20
2022-10-20T21:03:41.540Z,11.30
2022-10-20T21:06:13.933Z,11.20
2022-10-20T21:08:43.329Z,11.20
2022-10-20T21:11:12.253Z,11.20
2022-10-20T21:13:40.319Z,11.30
2022-10-20T21:16:12.704Z,11.30
2022-10-20T21:18:40.656Z,11.30
2022-10-20T21:21:12.927Z,11.30
2022-10-20T21:23:40.445Z,11.30
2022-10-20T21:26:07.991Z,11.30
2022-10-20T21:28:35.148Z,11.30
2022-10-20T21:31:10.001Z,11.30
2022-10-20T21:33:37.784Z,11.30
2022-10-20T21:36:07.492Z,11.40
2022-10-20T21:38:36.400Z,11.30
2022-10-20T21:41:24.540Z,11.40
2022-10-20T21:43:54.566Z,11.40
2022-10-20T21:46:29.805Z,11.30
2022-10-20T21:49:01.855Z,11.30
2022-10-20T21:51:32.240Z,11.30
2022-10-20T21:54:01.500Z,11.30
2022-10-20T21:56:28.978Z,11.30
2022-10-20T21:58:56.109Z,11.30
2022-10-20T22:01:24.766Z,11.30
2022-10-20T22:03:53.248Z,11.20
2022-10-20T22:06:22.813Z,11.20
2022-10-20T22:08:51.549Z,11.20
2022-10-20T22:11:22.373Z,11.20
2022-10-20T22:13:49.697Z,11.10
2022-10-20T22:16:19.246Z,11.10
2022-10-20T22:18:45.999Z,11.10
2022-10-20T22:21:17.608Z,11.10
2022-10-20T22:23:45.381Z,11.00
2022-10-20T22:26:12.890Z,11.00
2022-10-20T22:28:40.467Z,11.00
2022-10-20T22:31:07.698Z,11.00
2022-10-20T22:33:35.121Z,11.00
2022-10-20T22:36:02.487Z,11.00
2022-10-20T22:38:29.279Z,11.00
2022-10-20T22:41:03.304Z,11.00
2022-10-20T22:43:31.447Z,11.00
2022-10-20T22:45:58.733Z,11.00
2022-10-20T22:48:25.538Z,11.00
2022-10-20T22:50:52.496Z,11.00
2022-10-20T22:53:19.426Z,11.00
2022-10-20T22:55:46.348Z,11.00
2022-10-20T22:58:13.146Z,11.00
2022-10-20T23:00:41.225Z,11.00
2022-10-20T23:03:08.244Z,11.00
2022-10-20T23:05:35.284Z,11.00
2022-10-20T23:08:01.963Z,11.00
2022-10-20T23:10:28.882Z,11.00
2022-10-20T23:12:55.600Z,11.00
2022-10-20T23:15:22.399Z,11.00
2022-10-20T23:17:49.120Z,11.00
2022-10-20T23:20:16.048Z,11.00
2022-10-20T23:22:42.751Z,11.00
2022-10-20T23:25:09.705Z,11.00
2022-10-20T23:27:36.848Z,11.00
2022-10-20T23:30:04.134Z,11.00
2022-10-20T23:32:30.948Z,11.00
2022-10-20T23:34:57.639Z,11.00
2022-10-20T23:37:24.386Z,11.00
2022-10-20T23:39:51.075Z,11.00
2022-10-20T23:42:18.034Z,11.00
2022-10-20T23:44:44.781Z,11.00
2022-10-20T23:47:11.489Z,11.00
2022-10-20T23:49:38.184Z,10.90
2022-10-20T23:52:05.106Z,10.90
2022-10-20T23:54:31.817Z,11.00
2022-10-20T23:56:58.557Z,11.00
2022-10-20T23:59:25.327Z,10.90
